Terminal Aerodrome Forecast
Issued by NWS

Home | Current Version | Previous Version | Text Only | Print | Product List | Glossary On
Versions: 1 2 3 4 5 6 7 8 9 10 11 12 13 14 15 16 17 18 19 20 21 22 23 24 25
000
FTUS43 KDLH 140500
TAFHYR
TAF
KHYR 140532Z 1406/1506 18006KT P6SM BKN070
     FM140800 18007KT P6SM VCSH BKN060 WS015/23035KT
     FM141400 23008KT P6SM FEW060
     FM141800 27009G16KT P6SM SCT060=

USA.gov is the U.S. government's official web portal to all federal, state and local government web resources and services.